Terminal Aerodrome Forecast
Issued by NWS

Home | Current Version | Previous Version | Text Only | Print | Product List | Glossary On
Versions: 1 2 3 4 5 6 7 8 9 10 11 12
603
FTUS42 TJSJ 121720
TAFJBQ
TAF
TJBQ 121720Z 1218/1318 10016G20KT P6SM SCT060 BKN070
     FM122300 09008KT P6SM SCT025 SCT050
     FM131400 08015KT P6SM SCT040=

USA.gov is the U.S. government's official web portal to all federal, state and local government web resources and services.